Pyatigorsk, Russia
Current Conditions -  °F | °C
As of 3:30 PM on Tuesday 27 Jan 2015 (Local Time) from URMM Reporting Station
Scattered Clouds Scattered Clouds  
Wind Chill: 41°   Ceiling: Unl
Heat Index: 46°   Visibility: 6mi
Dew Point: 41°   Wind: 11mph
Humidity: 81%   Direction: 90°E
Pressure: 30.12"   Gusts: 16mph
Location:  44.05°N, 43.06°E
Report Text: URMM 271230Z 09005G07MPS 9999 SCT020 08/05 Q1020 R12/70D NOSIG RMK MT OBSC QFE736/0982
Loading
Personal Weather Stations






























Interactive Weather Map New forecast layout! Learn more

10-Day Weather Forecast

Advertisements
Track Severe Weather on mobile